Time;durP1;ratioP1;P1;durP2;ratioP2;P2;SDS_P1;SDS_P2;PMS_P1;PMS_P2;Temp;Humidity;BMP_temperature;BMP_pressure;BME280_temperature;BME280_humidity;BME280_pressure;Samples;Min_cycle;Max_cycle;Signal;HPM_P1;HPM_P2
2022/10/26 00:01:29;;;;;;;11.50;6.42;;;;;;;8.91;83.36;101691.73;1900569;74;21050;-57
2022/10/26 00:03:58;;;;;;;18.75;7.40;;;;;;;8.85;83.63;101700.16;1898173;74;21007;-58
2022/10/26 00:06:27;;;;;;;11.00;5.80;;;;;;;8.81;83.87;101693.66;1910084;74;21470;-57
2022/10/26 00:08:58;;;;;;;11.97;5.40;;;;;;;8.79;84.04;101699.38;1931055;74;21457;-56
2022/10/26 00:11:26;;;;;;;12.58;6.05;;;;;;;8.77;84.02;101688.89;1928920;74;21030;-57
2022/10/26 00:13:55;;;;;;;13.70;5.30;;;;;;;8.76;84.08;101689.80;1914225;74;21094;-57
2022/10/26 00:16:26;;;;;;;14.35;6.25;;;;;;;8.75;84.12;101685.43;1898204;74;21137;-57
2022/10/26 00:18:55;;;;;;;11.65;5.30;;;;;;;8.78;84.02;101680.56;1897941;75;21147;-57
2022/10/26 00:21:24;;;;;;;9.68;5.25;;;;;;;8.75;83.82;101680.63;1900140;74;21117;-59
2022/10/26 00:23:53;;;;;;;10.25;5.80;;;;;;;8.71;83.74;101674.56;1898029;75;21054;-57
2022/10/26 00:26:22;;;;;;;10.35;4.55;;;;;;;8.66;83.67;101665.44;1897988;75;21007;-56
2022/10/26 00:28:56;;;;;;;11.85;5.78;;;;;;;8.63;83.50;101660.25;1913025;74;21015;-57
2022/10/26 00:31:25;;;;;;;13.10;5.60;;;;;;;8.61;83.41;101659.84;1903742;75;21191;-57
2022/10/26 00:33:58;;;;;;;8.08;4.60;;;;;;;8.62;83.47;101659.82;1913748;74;21476;-57
2022/10/26 00:36:27;;;;;;;8.83;5.05;;;;;;;8.65;83.58;101654.95;1941593;74;21027;-56
2022/10/26 00:38:57;;;;;;;10.03;4.22;;;;;;;8.63;83.76;101653.69;1939107;74;21021;-57
2022/10/26 00:41:31;;;;;;;11.20;4.62;;;;;;;8.63;83.68;101658.05;1922799;74;21541;-58
2022/10/26 00:44:01;;;;;;;10.65;4.60;;;;;;;8.63;83.63;101659.36;1917699;74;21034;-54
2022/10/26 00:46:32;;;;;;;13.68;4.40;;;;;;;8.59;83.81;101662.94;1935425;74;21454;-53
2022/10/26 00:49:04;;;;;;;8.30;3.95;;;;;;;8.59;83.74;101656.38;1908052;75;21059;-52
2022/10/26 00:51:38;;;;;;;11.10;4.97;;;;;;;8.59;83.64;101653.75;1905739;74;21034;-54
2022/10/26 00:54:10;;;;;;;10.00;4.30;;;;;;;8.59;83.56;101652.44;1910172;74;21078;-56
2022/10/26 00:56:41;;;;;;;7.12;4.10;;;;;;;8.53;83.49;101653.86;1908827;74;21123;-54
2022/10/26 00:59:12;;;;;;;8.98;3.45;;;;;;;8.46;83.53;101644.75;1925650;74;21046;-55
2022/10/26 01:01:43;;;;;;;12.13;4.05;;;;;;;8.42;83.54;101640.90;1910367;74;21155;-59
2022/10/26 01:04:13;;;;;;;7.50;3.70;;;;;;;8.43;83.42;101631.70;1934575;74;21066;-56
2022/10/26 01:06:43;;;;;;;9.13;3.25;;;;;;;8.43;83.38;101622.97;1907956;75;21030;-55
2022/10/26 01:09:13;;;;;;;6.37;2.02;;;;;;;8.50;83.39;101625.45;1919883;74;21449;-55
2022/10/26 01:11:41;;;;;;;7.47;3.22;;;;;;;8.59;83.45;101624.42;1941396;74;21033;-55
2022/10/26 01:14:13;;;;;;;5.58;2.83;;;;;;;8.77;83.54;101623.25;1939299;74;21050;-60
2022/10/26 01:17:01;;;;;;;5.65;3.75;;;;;;;8.85;83.42;101624.00;1908033;75;21054;-59
2022/10/26 01:19:53;;;;;;;8.20;3.17;;;;;;;8.89;83.32;101624.36;1908177;75;21057;-59
2022/10/26 01:22:27;;;;;;;4.92;3.35;;;;;;;8.92;83.02;101627.81;1908963;74;21041;-56
2022/10/26 01:25:26;;;;;;;22.52;8.03;;;;;;;8.87;82.62;101616.95;1910348;74;21271;-58
2022/10/26 01:27:55;;;;;;;18.02;7.95;;;;;;;8.79;82.48;101617.52;1924784;74;21023;-53
2022/10/26 01:30:42;;;;;;;17.12;7.25;;;;;;;8.71;82.37;101612.00;1941507;74;21042;-54
2022/10/26 01:33:26;;;;;;;6.92;3.15;;;;;;;8.64;82.37;101612.09;1931602;74;21129;-54
2022/10/26 01:35:58;;;;;;;;;;;;;;;8.58;82.47;101615.28;1931409;74;21045;-54
2022/10/26 01:38:48;;;;;;;23.47;10.70;;;;;;;8.59;82.45;101610.44;1931480;74;20144;-59
2022/10/26 01:41:38;;;;;;;28.05;11.85;;;;;;;8.54;82.22;101617.52;1918849;73;21485;-58
2022/10/26 01:44:12;;;;;;;12.82;6.75;;;;;;;8.47;82.00;101620.25;1927793;74;21461;-59
2022/10/26 01:46:44;;;;;;;21.95;8.50;;;;;;;8.41;81.89;101612.45;1923709;74;21019;-58
2022/10/26 01:49:15;;;;;;;15.78;7.90;;;;;;;8.31;81.93;101616.09;1912006;74;21051;-58
2022/10/26 01:51:47;;;;;;;16.73;7.72;;;;;;;8.20;82.18;101611.01;1898023;75;21096;-58
2022/10/26 01:54:16;;;;;;;16.77;7.12;;;;;;;8.16;82.33;101615.89;1921477;74;21497;-58
2022/10/26 01:56:50;;;;;;;14.28;6.78;;;;;;;8.12;82.33;101616.83;1927011;74;21267;-53
2022/10/26 01:59:28;;;;;;;18.42;7.00;;;;;;;8.08;82.25;101612.08;1898150;75;21030;-53
2022/10/26 02:02:02;;;;;;;12.82;6.12;;;;;;;8.06;82.21;101618.21;1898088;75;21003;-50
2022/10/26 02:04:46;;;;;;;15.58;5.90;;;;;;;7.97;82.33;101615.30;1895084;75;21489;-50
2022/10/26 02:07:41;;;;;;;14.38;6.83;;;;;;;7.94;82.42;101612.71;1900205;74;21043;-50
2022/10/26 02:10:31;;;;;;;17.75;5.70;;;;;;;7.92;82.38;101617.97;1930582;74;21555;-53
2022/10/26 02:13:31;;;;;;;11.50;6.33;;;;;;;7.91;82.22;101616.68;1931454;74;21088;-50
2022/10/26 02:16:09;;;;;;;12.82;7.47;;;;;;;7.92;82.03;101621.91;1931484;74;21406;-49
2022/10/26 02:18:56;;;;;;;13.85;8.88;;;;;;;7.90;81.91;101620.20;1915802;74;21059;-52
2022/10/26 02:21:28;;;;;;;18.90;12.00;;;;;;;7.87;82.01;101619.78;1931210;73;21117;-52
2022/10/26 02:23:59;;;;;;;24.70;14.80;;;;;;;7.88;81.92;101616.74;1931302;74;21488;-60
2022/10/26 02:26:30;;;;;;;29.35;16.55;;;;;;;7.90;82.04;101625.45;1931565;74;21082;-53
2022/10/26 02:29:02;;;;;;;30.08;17.92;;;;;;;7.89;82.10;101624.59;1928971;74;21054;-49
2022/10/26 02:31:32;;;;;;;30.20;18.90;;;;;;;7.89;82.08;101628.95;1931821;74;21023;-55
2022/10/26 02:34:04;;;;;;;25.90;16.07;;;;;;;7.88;82.15;101621.98;1941293;74;21034;-55
2022/10/26 02:36:35;;;;;;;27.07;12.90;;;;;;;7.86;82.21;101623.31;1941465;74;21536;-59
2022/10/26 02:39:07;;;;;;;23.85;14.65;;;;;;;7.85;82.28;101619.39;1936081;73;21641;-59
2022/10/26 02:41:37;;;;;;;27.55;15.72;;;;;;;7.78;82.46;101609.87;1926812;74;21034;-59
2022/10/26 02:44:27;;;;;;;18.50;13.65;;;;;;;7.76;82.53;101611.66;1908086;75;21069;-52
2022/10/26 02:46:57;;;;;;;26.17;13.58;;;;;;;7.75;82.54;101605.55;1908239;74;21105;-51
2022/10/26 02:49:26;;;;;;;25.77;15.75;;;;;;;7.76;82.34;101601.16;1910228;74;21778;-53
2022/10/26 02:52:19;;;;;;;24.63;13.50;;;;;;;7.76;82.27;101598.55;1908088;75;21440;-53
2022/10/26 02:54:56;;;;;;;23.22;13.22;;;;;;;7.73;82.32;101587.22;1907953;75;21050;-58
2022/10/26 02:57:40;;;;;;;22.95;13.53;;;;;;;7.70;82.33;101584.62;1919326;74;21166;-58
2022/10/26 03:00:10;;;;;;;;;;;;;;;7.68;82.37;101579.85;1937144;73;21086;-58
2022/10/26 03:02:39;;;;;;;21.02;12.40;;;;;;;7.70;82.17;101574.14;1941466;73;20389;-57
2022/10/26 03:05:10;;;;;;;19.65;13.05;;;;;;;7.68;82.10;101568.05;1941450;74;21051;-57
2022/10/26 03:07:39;;;;;;;19.27;11.10;;;;;;;7.68;82.06;101566.74;1940706;74;21124;-53
2022/10/26 03:10:09;;;;;;;21.70;13.68;;;;;;;7.64;82.25;101566.83;1941170;74;21112;-50
2022/10/26 03:12:38;;;;;;;35.17;18.73;;;;;;;7.65;82.26;101564.61;1915583;74;21042;-57
2022/10/26 03:15:07;;;;;;;25.85;15.43;;;;;;;7.65;82.26;101566.78;1908173;75;21135;-56
2022/10/26 03:17:36;;;;;;;29.60;18.00;;;;;;;7.69;82.23;101563.25;1908132;75;21089;-56
2022/10/26 03:20:06;;;;;;;19.52;9.50;;;;;;;7.71;82.17;101556.68;1907947;74;21026;-57
2022/10/26 03:22:35;;;;;;;13.18;8.20;;;;;;;7.69;82.40;101553.19;1910323;74;21046;-57
2022/10/26 03:25:04;;;;;;;15.28;10.35;;;;;;;7.70;82.31;101551.86;1923090;74;21469;-56
2022/10/26 03:27:34;;;;;;;23.27;11.08;;;;;;;7.71;82.31;101554.91;1941436;74;21085;-58
2022/10/26 03:30:02;;;;;;;21.25;11.05;;;;;;;7.69;82.52;101551.45;1941403;74;21026;-57
2022/10/26 03:32:31;;;;;;;103.30;32.10;;;;;;;7.70;82.41;101551.86;1917410;74;21133;-60
2022/10/26 03:35:00;;;;;;;82.35;25.60;;;;;;;7.71;82.34;101552.30;1919205;73;21070;-58
2022/10/26 03:37:29;;;;;;;76.87;26.23;;;;;;;7.71;82.28;101548.81;1931352;74;21450;-58
2022/10/26 03:39:58;;;;;;;49.23;20.30;;;;;;;7.70;82.31;101545.30;1904912;74;21054;-56
2022/10/26 03:42:26;;;;;;;32.08;13.18;;;;;;;7.69;82.25;101553.19;1906117;74;21105;-56
2022/10/26 03:44:55;;;;;;;25.55;14.13;;;;;;;7.69;82.17;101552.77;1912648;74;21046;-54
2022/10/26 03:47:24;;;;;;;24.77;12.73;;;;;;;7.69;82.11;101554.08;1931278;74;21199;-55
2022/10/26 03:49:52;;;;;;;20.35;10.50;;;;;;;7.69;82.06;101555.38;1931347;74;21100;-54
2022/10/26 03:52:23;;;;;;;12.30;5.75;;;;;;;7.69;82.12;101550.14;1898395;74;21098;-55
2022/10/26 03:54:52;;;;;;;12.55;5.87;;;;;;;7.68;82.17;101545.77;1900211;74;21027;-52
2022/10/26 03:57:21;;;;;;;20.77;8.15;;;;;;;7.64;82.28;101545.41;1908154;74;21405;-60
2022/10/26 03:59:49;;;;;;;25.92;10.98;;;;;;;7.60;82.55;101548.96;1931051;74;21047;-54
2022/10/26 04:02:18;;;;;;;26.55;10.13;;;;;;;7.58;82.74;101552.05;1913729;74;21062;-54
2022/10/26 04:04:47;;;;;;;21.45;8.58;;;;;;;7.58;82.77;101550.73;1897753;75;21141;-53
2022/10/26 04:07:16;;;;;;;14.33;7.65;;;;;;;7.59;82.77;101543.28;1897953;75;21062;-54
2022/10/26 04:09:45;;;;;;;19.80;6.75;;;;;;;7.59;82.85;101541.97;1897879;75;21116;-54
2022/10/26 04:12:14;;;;;;;16.23;7.35;;;;;;;7.61;82.85;101545.44;1897746;75;21151;-55
2022/10/26 04:14:42;;;;;;;23.85;8.10;;;;;;;7.63;82.86;101546.28;1897807;75;21034;-56
2022/10/26 04:17:11;;;;;;;20.08;7.53;;;;;;;7.67;83.04;101540.12;1897955;75;20995;-57
2022/10/26 04:19:40;;;;;;;10.95;6.10;;;;;;;7.74;82.92;101548.30;1898101;74;21014;-57
2022/10/26 04:22:08;;;;;;;16.60;6.37;;;;;;;7.82;82.80;101548.21;1897871;75;21066;-58
2022/10/26 04:24:37;;;;;;;16.62;6.75;;;;;;;7.92;82.64;101558.97;1897866;75;21089;-60
2022/10/26 04:27:06;;;;;;;33.02;8.23;;;;;;;8.03;82.49;101557.50;1894793;75;21570;-58
2022/10/26 04:29:35;;;;;;;21.65;9.23;;;;;;;8.15;82.30;101551.19;1894443;75;21047;-59
2022/10/26 04:32:04;;;;;;;22.93;9.65;;;;;;;8.24;82.19;101550.17;1895928;76;21125;-59
2022/10/26 04:34:32;;;;;;;23.90;10.23;;;;;;;8.29;82.21;101556.22;1889170;75;21203;-58
2022/10/26 04:37:01;;;;;;;25.20;10.78;;;;;;;8.38;82.14;101556.52;1889306;75;21150;-59
2022/10/26 04:39:30;;;;;;;25.82;12.28;;;;;;;8.48;81.93;101562.05;1884617;76;21109;-59
2022/10/26 04:41:59;;;;;;;22.48;10.25;;;;;;;8.58;81.77;101565.41;1889201;76;21029;-60
2022/10/26 04:44:28;;;;;;;15.60;8.48;;;;;;;8.68;81.63;101572.20;1888556;75;21479;-58
2022/10/26 04:47:17;;;;;;;18.10;9.15;;;;;;;8.77;81.45;101561.99;1899700;75;21161;-59
2022/10/26 04:49:46;;;;;;;25.00;10.50;;;;;;;8.82;81.25;101569.34;1899628;75;21041;-59
2022/10/26 04:52:15;;;;;;;23.83;13.83;;;;;;;8.84;81.07;101573.66;1898897;74;21024;-58
2022/10/26 04:54:43;;;;;;;42.48;26.27;;;;;;;8.88;80.92;101575.33;1898221;75;21209;-59
2022/10/26 04:57:12;;;;;;;35.48;19.85;;;;;;;8.93;80.89;101565.18;1906714;74;21589;-58
2022/10/26 04:59:41;;;;;;;29.95;19.37;;;;;;;8.96;80.86;101562.50;1924499;74;21030;-58
2022/10/26 05:02:10;;;;;;;34.55;20.52;;;;;;;9.03;80.78;101551.84;1896163;75;21044;-58
2022/10/26 05:04:38;;;;;;;29.63;19.80;;;;;;;9.11;80.75;101559.60;1896099;75;21116;-58
2022/10/26 05:07:07;;;;;;;33.55;17.27;;;;;;;9.12;80.83;101567.88;1896113;76;21048;-57
2022/10/26 05:09:36;;;;;;;29.82;17.42;;;;;;;9.19;80.91;101569.95;1896275;75;21048;-56
2022/10/26 05:12:05;;;;;;;30.68;16.05;;;;;;;9.26;80.83;101572.42;1896104;76;21145;-55
2022/10/26 05:14:34;;;;;;;28.47;15.45;;;;;;;9.39;80.61;101565.61;1899491;74;21041;-48
2022/10/26 05:17:02;;;;;;;31.33;13.55;;;;;;;9.54;80.36;101567.91;1899807;75;21053;-51
2022/10/26 05:19:31;;;;;;;25.40;12.88;;;;;;;9.74;80.20;101563.95;1898959;74;21049;-52
2022/10/26 05:22:00;;;;;;;30.25;14.03;;;;;;;9.88;80.02;101559.25;1898254;75;21061;-52
2022/10/26 05:24:29;;;;;;;29.07;13.48;;;;;;;10.04;79.78;101561.94;1897390;75;21149;-56
2022/10/26 05:26:58;;;;;;;24.07;10.63;;;;;;;10.18;79.66;101564.69;1896124;76;21024;-57
2022/10/26 05:29:26;;;;;;;22.82;12.45;;;;;;;10.33;79.49;101568.31;1895981;76;21072;-57
2022/10/26 05:31:55;;;;;;;30.30;14.60;;;;;;;10.56;79.33;101566.86;1896091;76;21129;-57
2022/10/26 05:34:24;;;;;;;39.48;18.23;;;;;;;10.81;79.07;101557.41;1897405;75;21072;-56
2022/10/26 05:36:53;;;;;;;39.25;16.87;;;;;;;10.88;78.82;101553.28;1898555;75;21162;-56
2022/10/26 05:39:22;;;;;;;30.35;16.35;;;;;;;10.94;78.73;101558.41;1901428;75;21796;-56
2022/10/26 05:41:51;;;;;;;31.05;16.87;;;;;;;11.01;78.63;101555.98;1921242;75;21132;-57
2022/10/26 05:44:20;;;;;;;24.92;14.63;;;;;;;11.09;78.42;101552.70;1921349;75;21136;-56
2022/10/26 05:46:49;;;;;;;23.98;14.13;;;;;;;11.36;78.12;101551.47;1912311;75;21172;-57
2022/10/26 05:49:18;;;;;;;26.50;15.30;;;;;;;11.73;78.10;101543.77;1905819;75;21035;-57
2022/10/26 05:51:46;;;;;;;32.95;13.78;;;;;;;12.00;77.79;101543.86;1908425;75;21540;-56
2022/10/26 05:54:15;;;;;;;26.52;12.47;;;;;;;12.19;77.46;101536.20;1902816;75;21025;-57
2022/10/26 05:56:44;;;;;;;27.55;12.50;;;;;;;12.39;77.28;101540.81;1882113;75;21182;-49
2022/10/26 05:59:15;;;;;;;22.55;11.65;;;;;;;12.71;77.10;101545.00;1911861;74;21078;-54
2022/10/26 06:01:53;;;;;;;23.62;10.72;;;;;;;13.21;76.88;101545.42;1878517;75;21061;-55
2022/10/26 06:04:25;;;;;;;20.72;11.30;;;;;;;13.37;76.33;101551.89;1877251;76;21110;-53
2022/10/26 06:06:55;;;;;;;28.77;11.12;;;;;;;13.76;75.90;101549.95;1876949;76;21623;-57
2022/10/26 06:09:24;;;;;;;29.67;10.88;;;;;;;14.15;75.04;101555.03;1877654;76;21158;-57
2022/10/26 06:11:53;;;;;;;55.33;11.40;;;;;;;14.46;74.13;101549.31;1879204;76;21072;-57
2022/10/26 06:14:23;;;;;;;34.18;9.48;;;;;;;14.80;73.81;101541.25;1889243;76;21053;-56
2022/10/26 06:17:26;;;;;;;32.00;10.23;;;;;;;15.11;73.49;101535.92;1889354;76;21114;-54
2022/10/26 06:20:10;;;;;;;46.63;10.80;;;;;;;15.27;72.99;101536.94;1889270;76;21490;-56
2022/10/26 06:22:59;;;;;;;30.25;9.23;;;;;;;15.43;72.91;101536.59;1889371;76;21503;-54
2022/10/26 06:25:45;;;;;;;24.60;8.60;;;;;;;15.52;72.83;101532.66;1888708;76;21130;-54
2022/10/26 06:28:38;;;;;;;22.15;7.47;;;;;;;15.56;72.71;101541.34;1871130;76;21108;-56
2022/10/26 06:31:07;;;;;;;20.27;7.75;;;;;;;15.44;72.84;101534.35;1884047;76;21534;-55
2022/10/26 06:33:36;;;;;;;27.70;8.03;;;;;;;15.31;73.05;101530.55;1884588;76;21107;-56
2022/10/26 06:36:20;;;;;;;26.90;6.85;;;;;;;15.16;73.21;101533.89;1881735;74;21045;-50
2022/10/26 06:38:55;;;;;;;18.42;5.50;;;;;;;14.91;73.33;101525.73;1884695;76;21107;-54
2022/10/26 06:41:25;;;;;;;12.78;5.25;;;;;;;14.72;73.45;101527.45;1878783;76;21113;-54
2022/10/26 06:43:54;;;;;;;20.10;5.35;;;;;;;14.58;73.63;101519.66;1884624;76;21151;-55
2022/10/26 06:46:50;;;;;;;13.78;4.95;;;;;;;14.41;73.73;101514.20;1883252;74;21281;-54
2022/10/26 06:49:38;;;;;;;13.62;4.67;;;;;;;14.29;73.81;101519.09;1874081;76;21054;-58
2022/10/26 06:52:33;;;;;;;16.95;4.47;;;;;;;14.26;73.90;101521.86;1875166;76;21527;-57
2022/10/26 06:55:04;;;;;;;11.38;4.28;;;;;;;14.28;73.94;101521.33;1874423;76;21722;-57
2022/10/26 06:57:38;;;;;;;12.10;4.00;;;;;;;14.30;73.99;101517.30;1874548;75;21004;-56
2022/10/26 07:00:10;;;;;;;15.80;4.40;;;;;;;14.31;74.08;101523.45;1881064;76;21113;-58
2022/10/26 07:02:38;;;;;;;10.90;4.10;;;;;;;14.36;74.12;101521.47;1877858;76;21123;-58
2022/10/26 07:05:11;;;;;;;8.95;4.35;;;;;;;14.41;74.17;101522.15;1865672;76;21081;-57
2022/10/26 07:07:43;;;;;;;8.38;3.05;;;;;;;14.48;74.25;101518.31;1865504;76;21095;-57
2022/10/26 07:10:14;;;;;;;13.38;5.08;;;;;;;14.59;74.33;101512.11;1865133;77;21131;-58
2022/10/26 07:12:42;;;;;;;16.48;6.45;;;;;;;14.72;74.35;101515.09;1865113;77;21022;-58
2022/10/26 07:15:11;;;;;;;20.32;7.22;;;;;;;14.90;74.36;101516.03;1865729;76;21135;-56
2022/10/26 07:17:47;;;;;;;32.03;11.57;;;;;;;15.10;74.34;101516.94;1868412;75;21097;-59
2022/10/26 07:20:21;;;;;;;33.10;9.55;;;;;;;15.25;74.25;101522.86;1873493;76;21492;-55
2022/10/26 07:22:55;;;;;;;16.50;4.85;;;;;;;15.34;74.19;101518.92;1875111;76;21038;-58
2022/10/26 07:25:25;;;;;;;22.55;6.35;;;;;;;15.44;74.06;101515.77;1875045;76;21113;-58
2022/10/26 07:27:59;;;;;;;38.08;6.55;;;;;;;15.58;73.97;101515.58;1875139;76;21085;-56
2022/10/26 07:30:27;;;;;;;;;;;;;;;15.71;73.89;101511.39;1873782;75;21567;-54
2022/10/26 07:33:04;;;;;;;16.87;5.08;;;;;;;15.79;73.76;101506.62;1865139;76;20180;-57
2022/10/26 07:35:34;;;;;;;26.12;5.40;;;;;;;15.82;73.62;101502.50;1865121;77;21131;-55
2022/10/26 07:38:03;;;;;;;12.58;3.70;;;;;;;15.90;73.59;101503.45;1867712;75;21549;-57
2022/10/26 07:40:32;;;;;;;11.80;2.62;;;;;;;15.89;73.54;101497.73;1871000;76;21647;-57
2022/10/26 07:43:01;;;;;;;12.35;3.22;;;;;;;15.89;73.50;101496.88;1866412;76;21640;-52
2022/10/26 07:45:30;;;;;;;16.30;3.80;;;;;;;15.93;73.49;101506.41;1865119;77;21053;-55
2022/10/26 07:47:59;;;;;;;7.35;2.12;;;;;;;15.91;73.57;101506.48;1869896;75;21070;-48
2022/10/26 07:50:28;;;;;;;7.47;2.67;;;;;;;15.86;73.63;101508.52;1875325;75;21065;-51
2022/10/26 07:52:59;;;;;;;5.62;2.20;;;;;;;15.86;73.60;101507.64;1875048;76;21029;-52
2022/10/26 07:55:27;;;;;;;3.62;1.50;;;;;;;15.86;73.58;101507.64;1875056;76;21121;-51
2022/10/26 07:57:56;;;;;;;2.80;0.95;;;;;;;15.92;73.18;101512.67;1874310;75;21038;-53
2022/10/26 08:00:25;;;;;;;2.17;1.17;;;;;;;15.97;72.95;101512.84;1873083;76;21010;-52
2022/10/26 08:02:54;;;;;;;2.62;1.10;;;;;;;16.05;72.78;101510.27;1874518;75;21206;-49
2022/10/26 08:05:23;;;;;;;1.87;1.00;;;;;;;16.11;72.38;101514.79;1875065;76;21492;-51
2022/10/26 08:07:52;;;;;;;1.90;1.10;;;;;;;16.18;72.13;101518.86;1873728;76;21042;-49
2022/10/26 08:10:21;;;;;;;3.35;1.25;;;;;;;16.27;72.06;101514.01;1870629;75;21433;-55
2022/10/26 08:12:51;;;;;;;8.00;1.37;;;;;;;16.32;71.78;101511.98;1874380;76;21065;-57
2022/10/26 08:15:20;;;;;;;2.08;1.00;;;;;;;16.38;71.70;101511.70;1875040;76;21033;-57
2022/10/26 08:17:49;;;;;;;5.12;1.10;;;;;;;16.48;71.23;101511.59;1846969;76;21049;-55
2022/10/26 08:20:17;;;;;;;2.08;0.90;;;;;;;16.58;71.05;101514.18;1868278;76;21025;-60
2022/10/26 08:22:46;;;;;;;5.35;1.27;;;;;;;16.65;70.66;101499.22;1873834;76;21088;-58
2022/10/26 08:25:15;;;;;;;3.08;1.20;;;;;;;16.73;70.61;101505.02;1873815;76;21122;-59
2022/10/26 08:27:44;;;;;;;2.67;1.00;;;;;;;16.81;70.30;101506.78;1874646;76;21069;-55
2022/10/26 08:30:13;;;;;;;1.40;1.00;;;;;;;16.90;70.28;101502.34;1875133;76;21018;-52
2022/10/26 08:32:43;;;;;;;2.90;1.00;;;;;;;16.97;70.13;101501.55;1875248;75;21017;-51
2022/10/26 08:35:12;;;;;;;2.33;1.25;;;;;;;17.07;69.86;101497.91;1875449;75;21500;-53
2022/10/26 08:37:41;;;;;;;4.58;1.30;;;;;;;17.12;69.61;101485.23;1843671;78;21037;-50
2022/10/26 08:40:12;;;;;;;3.77;1.00;;;;;;;17.14;69.20;101490.84;1851121;77;21085;-53
2022/10/26 08:42:44;;;;;;;2.77;1.22;;;;;;;17.22;69.27;101486.42;1865089;76;21561;-55
2022/10/26 08:45:40;;;;;;;3.72;1.17;;;;;;;17.28;69.07;101482.11;1865241;77;21045;-54
2022/10/26 08:48:20;;;;;;;2.02;0.90;;;;;;;17.32;69.00;101477.00;1865154;76;21085;-54
2022/10/26 08:50:55;;;;;;;2.95;1.10;;;;;;;17.38;68.91;101466.95;1865663;76;21596;-54
2022/10/26 08:53:29;;;;;;;1.70;1.00;;;;;;;17.40;68.47;101466.39;1864847;77;21100;-55
2022/10/26 08:56:04;;;;;;;1.22;1.00;;;;;;;17.38;67.88;101466.48;1865019;77;21065;-55
2022/10/26 08:58:35;;;;;;;4.72;1.20;;;;;;;17.36;67.57;101470.55;1855024;76;21018;-54
2022/10/26 09:01:04;;;;;;;1.37;0.80;;;;;;;17.33;67.15;101469.38;1874152;76;21120;-56
2022/10/26 09:03:33;;;;;;;2.25;1.10;;;;;;;17.32;66.98;101460.17;1875169;76;21034;-53
2022/10/26 09:06:26;;;;;;;1.65;0.98;;;;;;;17.35;67.05;101455.98;1875272;76;21069;-55
2022/10/26 09:09:09;;;;;;;1.30;1.03;;;;;;;17.36;66.81;101451.91;1816461;79;21196;-52
2022/10/26 09:11:59;;;;;;;3.10;1.42;;;;;;;17.42;66.67;101448.53;1815623;79;21209;-54
2022/10/26 09:14:51;;;;;;;2.70;1.22;;;;;;;17.46;66.65;101445.59;1851700;76;21453;-52
2022/10/26 09:17:32;;;;;;;5.50;2.00;;;;;;;17.50;66.46;101448.48;1875239;76;21037;-55
2022/10/26 09:20:26;;;;;;;2.70;1.20;;;;;;;17.52;66.31;101435.06;1873327;75;21136;-52
2022/10/26 09:23:11;;;;;;;2.75;2.00;;;;;;;17.55;66.15;101434.90;1875035;76;21602;-48
2022/10/26 09:25:41;;;;;;;7.55;1.30;;;;;;;17.58;66.15;101425.41;1867026;76;21037;-49
2022/10/26 09:28:12;;;;;;;1.55;1.32;;;;;;;17.63;65.93;101418.02;1874408;76;21040;-49
2022/10/26 09:30:43;;;;;;;1.60;0.85;;;;;;;17.64;65.13;101402.41;1874702;76;21017;-53
2022/10/26 09:33:21;;;;;;;4.12;1.30;;;;;;;17.61;64.12;101389.27;1866988;76;21045;-50
2022/10/26 09:36:01;;;;;;;0.88;0.60;;;;;;;17.61;64.37;101389.27;1861506;76;21585;-49
2022/10/26 09:38:41;;;;;;;1.55;0.98;;;;;;;17.59;63.66;101376.52;1843704;78;21041;-49
2022/10/26 09:41:35;;;;;;;4.28;1.10;;;;;;;17.58;63.44;101378.81;1860009;77;21034;-56
2022/10/26 09:44:07;;;;;;;3.17;1.00;;;;;;;17.58;63.32;101363.28;1865292;77;21109;-54
2022/10/26 09:46:44;;;;;;;2.47;0.60;;;;;;;17.57;62.58;101358.45;1864464;77;21546;-55
2022/10/26 09:49:15;;;;;;;1.30;1.00;;;;;;;17.55;62.89;101359.02;1863374;76;21093;-55
2022/10/26 09:51:45;;;;;;;3.08;0.93;;;;;;;17.52;62.89;101353.41;1865112;77;21062;-53
2022/10/26 09:54:19;;;;;;;1.17;0.60;;;;;;;17.52;63.30;101349.86;1865064;77;21049;-51
2022/10/26 09:56:53;;;;;;;1.42;0.80;;;;;;;17.51;63.24;101361.48;1865383;76;21097;-51
2022/10/26 09:59:24;;;;;;;3.02;1.05;;;;;;;17.48;62.87;101359.83;1869758;76;21021;-54
2022/10/26 10:01:53;;;;;;;2.55;0.70;;;;;;;17.46;62.85;101360.40;1875127;76;21530;-54
2022/10/26 10:04:23;;;;;;;2.30;0.68;;;;;;;17.44;62.52;101360.11;1875320;76;21123;-58
2022/10/26 10:07:07;;;;;;;1.47;0.80;;;;;;;17.40;62.64;101355.92;1875057;76;21613;-57
2022/10/26 10:09:35;;;;;;;2.70;1.12;;;;;;;17.38;62.53;101348.50;1874189;76;21096;-58
2022/10/26 10:12:05;;;;;;;1.42;0.68;;;;;;;17.33;62.48;101352.27;1865145;77;21448;-57
2022/10/26 10:14:41;;;;;;;3.00;0.80;;;;;;;17.30;61.78;101353.80;1869737;76;21046;-56
2022/10/26 10:17:19;;;;;;;2.75;0.80;;;;;;;17.31;61.76;101336.86;1874969;76;21014;-56
2022/10/26 10:19:48;;;;;;;2.42;0.90;;;;;;;17.31;62.08;101336.86;1874520;76;21073;-58
2022/10/26 10:22:25;;;;;;;1.72;0.60;;;;;;;17.30;62.10;101340.48;1875054;76;21065;-54
2022/10/26 10:25:01;;;;;;;4.05;1.22;;;;;;;17.30;61.82;101347.59;1873691;75;21074;-52
2022/10/26 10:27:32;;;;;;;1.52;0.75;;;;;;;17.30;61.58;101340.48;1867483;76;21045;-56
2022/10/26 10:30:03;;;;;;;0.78;0.70;;;;;;;17.33;61.53;101340.28;1865107;77;21053;-54
2022/10/26 10:32:32;;;;;;;2.55;1.07;;;;;;;17.35;61.80;101334.87;1858987;77;21081;-55
2022/10/26 10:35:01;;;;;;;1.22;0.60;;;;;;;17.34;61.92;101339.36;1865087;76;21131;-56
2022/10/26 10:37:33;;;;;;;1.92;0.78;;;;;;;17.35;61.78;101347.73;1865219;76;21112;-52
2022/10/26 10:40:08;;;;;;;1.40;0.90;;;;;;;17.35;62.07;101346.86;1865045;77;21072;-50
2022/10/26 10:42:40;;;;;;;2.50;1.00;;;;;;;17.34;62.26;101342.02;1865085;77;21069;-52
2022/10/26 10:45:21;;;;;;;1.20;0.70;;;;;;;17.33;62.40;101332.30;1865118;76;21456;-53
2022/10/26 10:48:13;;;;;;;1.10;0.90;;;;;;;17.31;62.56;101322.22;1865104;77;21049;-53
2022/10/26 10:50:54;;;;;;;3.50;1.22;;;;;;;17.30;62.67;101334.28;1874610;76;21086;-47
2022/10/26 10:53:38;;;;;;;1.12;0.70;;;;;;;17.27;62.69;101337.98;1881994;76;21036;-51
2022/10/26 10:56:10;;;;;;;;;;;;;;;17.24;62.77;101340.81;1883941;76;21041;-49
2022/10/26 10:58:47;;;;;;;2.62;1.00;;;;;;;17.21;62.93;101341.02;1885040;75;20116;-49
2022/10/26 11:01:19;;;;;;;3.12;1.02;;;;;;;17.18;63.10;101343.84;1852809;77;21076;-49
2022/10/26 11:04:06;;;;;;;4.05;0.82;;;;;;;17.16;63.20;101354.56;1869258;76;21150;-48
2022/10/26 11:06:38;;;;;;;2.12;0.90;;;;;;;17.17;63.34;101354.97;1877952;76;21076;-51
2022/10/26 11:09:09;;;;;;;4.00;1.10;;;;;;;17.21;63.40;101359.64;1881790;76;21451;-50
2022/10/26 11:11:56;;;;;;;2.27;1.05;;;;;;;17.28;63.33;101359.68;1877401;76;21491;-49
2022/10/26 11:14:27;;;;;;;2.08;1.17;;;;;;;17.33;63.25;101350.08;1876602;76;21091;-49
2022/10/26 11:17:05;;;;;;;1.37;0.95;;;;;;;17.40;63.17;101345.27;1877288;76;21175;-48
2022/10/26 11:19:39;;;;;;;2.77;1.30;;;;;;;17.45;63.15;101351.20;1879401;76;21110;-49
2022/10/26 11:22:13;;;;;;;2.87;0.98;;;;;;;17.50;63.18;101353.09;1864735;76;21040;-51
2022/10/26 11:24:45;;;;;;;4.67;1.10;;;;;;;17.53;63.22;101359.58;1877636;76;21029;-50
2022/10/26 11:27:16;;;;;;;1.15;0.70;;;;;;;17.55;63.16;101360.34;1878430;76;21483;-49
2022/10/26 11:30:03;;;;;;;3.52;1.00;;;;;;;17.57;62.44;101357.11;1884600;76;21131;-50
2022/10/26 11:32:46;;;;;;;2.67;0.82;;;;;;;17.60;62.36;101352.95;1884692;76;21056;-49
2022/10/26 11:35:21;;;;;;;1.72;1.10;;;;;;;17.63;62.33;101354.56;1858111;74;21196;-50
2022/10/26 11:37:58;;;;;;;2.75;0.90;;;;;;;17.62;62.36;101361.70;1884405;75;21575;-56
2022/10/26 11:41:02;;;;;;;1.35;0.82;;;;;;;17.58;61.87;101357.52;1884073;76;21048;-55
2022/10/26 11:43:39;;;;;;;1.30;0.85;;;;;;;17.54;61.76;101370.62;1884699;76;21147;-53
2022/10/26 11:46:23;;;;;;;1.25;0.93;;;;;;;17.52;61.96;101357.84;1852778;77;21041;-56
2022/10/26 11:48:58;;;;;;;;;;;;;;;17.50;62.06;101351.76;1855470;77;21448;-56
2022/10/26 11:51:42;;;;;;;4.62;1.20;;;;;;;17.47;62.15;101364.79;1857932;76;20161;-56
2022/10/26 11:54:31;;;;;;;1.75;1.00;;;;;;;17.46;62.32;101359.55;1868219;76;21057;-52